createdAt,value
2023-02-25T00:01:32.392Z,48.60
2023-02-25T00:04:00.043Z,48.28
2023-02-25T00:06:27.698Z,49.67
2023-02-25T00:08:55.692Z,49.40
2023-02-25T00:11:25.334Z,47.45
2023-02-25T00:13:52.791Z,49.88
2023-02-25T00:16:22.197Z,50.17
2023-02-25T00:18:54.835Z,48.45
2023-02-25T00:21:22.927Z,50.03
2023-02-25T00:23:51.643Z,49.42
2023-02-25T00:26:19.919Z,50.83
2023-02-25T00:28:48.430Z,52.42
2023-02-25T00:31:19.117Z,51.08
2023-02-25T00:33:46.545Z,50.47
2023-02-25T00:36:20.355Z,49.83
2023-02-25T00:38:53.752Z,50.88
2023-02-25T00:41:25.352Z,49.25
2023-02-25T00:44:00.992Z,51.08
2023-02-25T00:46:32.034Z,49.95
2023-02-25T00:48:59.961Z,49.97
2023-02-25T00:51:30.014Z,49.92
2023-02-25T00:53:58.400Z,49.58
2023-02-25T00:56:27.054Z,50.17
2023-02-25T00:58:55.046Z,49.88
2023-02-25T01:01:26.350Z,50.35
2023-02-25T01:03:56.507Z,49.85
2023-02-25T01:06:26.225Z,49.13
2023-02-25T01:08:54.295Z,46.92
2023-02-25T01:11:27.718Z,48.58
2023-02-25T01:14:22.505Z,48.97
2023-02-25T01:16:51.118Z,48.70
2023-02-25T01:19:23.947Z,49.28
2023-02-25T01:21:56.940Z,48.20
2023-02-25T01:24:27.708Z,48.25
2023-02-25T01:26:59.194Z,48.25
2023-02-25T01:29:32.639Z,49.28
2023-02-25T01:32:02.840Z,47.47
2023-02-25T01:34:31.216Z,48.88
2023-02-25T01:36:58.985Z,48.25
2023-02-25T01:39:27.752Z,47.45
2023-02-25T01:41:56.939Z,47.63
2023-02-25T01:44:58.239Z,47.92
2023-02-25T01:47:26.902Z,47.10
2023-02-25T01:49:54.249Z,46.35
2023-02-25T01:52:24.782Z,47.22
2023-02-25T01:54:58.163Z,46.33
2023-02-25T01:57:25.989Z,47.45
2023-02-25T01:59:55.096Z,48.05
2023-02-25T02:02:26.703Z,47.42
2023-02-25T02:04:54.862Z,47.90
2023-02-25T02:07:24.640Z,48.13
2023-02-25T02:09:58.596Z,48.23
2023-02-25T02:12:39.298Z,48.40
2023-02-25T02:15:11.040Z,48.83
2023-02-25T02:18:00.735Z,48.50
2023-02-25T02:20:34.802Z,47.83
2023-02-25T02:23:31.596Z,47.85
2023-02-25T02:26:10.957Z,47.00
2023-02-25T02:28:50.097Z,47.30
2023-02-25T02:31:33.592Z,46.45
2023-02-25T02:34:26.643Z,47.53
2023-02-25T02:37:16.535Z,46.85
2023-02-25T02:39:46.858Z,45.45
2023-02-25T02:42:28.765Z,46.17
2023-02-25T02:44:59.115Z,53.80
2023-02-25T02:47:34.680Z,49.55
2023-02-25T02:50:08.816Z,51.53
2023-02-25T02:52:43.215Z,53.50
2023-02-25T02:55:22.433Z,53.08
2023-02-25T02:57:58.055Z,53.00
2023-02-25T03:00:29.830Z,53.93
2023-02-25T03:03:36.352Z,52.95
2023-02-25T03:06:11.403Z,53.22
2023-02-25T03:08:54.725Z,52.47
2023-02-25T03:11:22.190Z,51.60
2023-02-25T03:13:51.301Z,50.30
2023-02-25T03:16:36.435Z,50.80
2023-02-25T03:19:08.256Z,50.17
2023-02-25T03:21:42.137Z,50.30
2023-02-25T03:24:17.362Z,51.13
2023-02-25T03:26:45.712Z,47.03
2023-02-25T03:29:17.765Z,47.08
2023-02-25T03:31:51.592Z,46.88
2023-02-25T03:34:23.613Z,46.47
2023-02-25T03:37:02.330Z,46.65
2023-02-25T03:39:36.180Z,45.63
2023-02-25T03:42:06.173Z,44.50
2023-02-25T03:44:38.220Z,43.30
2023-02-25T03:47:09.111Z,43.13
2023-02-25T03:49:59.287Z,42.13
2023-02-25T03:52:28.508Z,41.72
2023-02-25T03:55:00.925Z,40.28
2023-02-25T03:57:42.078Z,41.70
2023-02-25T04:00:18.008Z,41.30
2023-02-25T04:02:47.050Z,40.08
2023-02-25T04:05:16.373Z,39.53
2023-02-25T04:07:43.905Z,39.20
2023-02-25T04:10:13.310Z,38.93
2023-02-25T04:12:40.882Z,39.38
2023-02-25T04:15:09.265Z,39.00
2023-02-25T04:17:37.213Z,38.85
2023-02-25T04:20:06.065Z,38.55
2023-02-25T04:22:33.880Z,38.03
2023-02-25T04:25:01.474Z,37.53
2023-02-25T04:27:28.936Z,39.05
2023-02-25T04:29:56.293Z,38.83
2023-02-25T04:32:23.889Z,38.70
2023-02-25T04:34:51.698Z,38.10
2023-02-25T04:37:19.036Z,38.20
2023-02-25T04:39:46.607Z,37.57
2023-02-25T04:42:13.965Z,37.85
2023-02-25T04:44:41.384Z,37.73
2023-02-25T04:47:08.719Z,37.27
2023-02-25T04:49:44.763Z,37.67
2023-02-25T04:52:13.776Z,38.28
2023-02-25T04:54:41.151Z,37.50
2023-02-25T04:57:08.901Z,37.42
2023-02-25T04:59:36.365Z,37.80
2023-02-25T05:02:04.193Z,37.25
2023-02-25T05:04:31.592Z,36.80
2023-02-25T05:06:58.896Z,36.30
2023-02-25T05:09:26.309Z,36.60
2023-02-25T05:11:53.783Z,36.20
2023-02-25T05:14:21.539Z,37.22
2023-02-25T05:16:48.946Z,36.95
2023-02-25T05:19:21.075Z,35.40
2023-02-25T05:21:52.620Z,35.00
2023-02-25T05:24:23.598Z,34.88
2023-02-25T05:26:54.499Z,34.85
2023-02-25T05:29:21.881Z,34.97
2023-02-25T05:31:51.824Z,34.38
2023-02-25T05:34:19.460Z,35.17
2023-02-25T05:36:46.876Z,33.72
2023-02-25T05:39:14.587Z,34.35
2023-02-25T05:41:42.270Z,34.53
2023-02-25T05:44:12.412Z,34.90
2023-02-25T05:46:39.828Z,33.47
2023-02-25T05:49:07.194Z,33.33
2023-02-25T05:51:34.641Z,33.28
2023-02-25T05:54:02.121Z,33.45
2023-02-25T05:56:32.121Z,33.85
2023-02-25T05:58:59.822Z,33.42
2023-02-25T06:01:29.429Z,35.35
2023-02-25T06:04:00.610Z,34.13
2023-02-25T06:06:30.155Z,33.72
2023-02-25T06:08:58.229Z,32.40
2023-02-25T06:11:30.768Z,33.90
2023-02-25T06:13:59.340Z,33.05
2023-02-25T06:16:32.373Z,32.17
2023-02-25T06:19:01.394Z,32.03
2023-02-25T06:21:29.631Z,32.78
2023-02-25T06:23:57.064Z,33.63
2023-02-25T06:26:24.734Z,32.50
2023-02-25T06:28:52.355Z,32.50
2023-02-25T06:31:22.507Z,31.55
2023-02-25T06:33:52.849Z,31.08
2023-02-25T06:36:21.686Z,32.25
2023-02-25T06:38:49.347Z,30.43
2023-02-25T06:41:19.556Z,31.67
2023-02-25T06:43:52.163Z,30.65
2023-02-25T06:46:22.461Z,30.33
2023-02-25T06:48:50.045Z,30.00
2023-02-25T06:51:17.526Z,31.07
2023-02-25T06:53:45.412Z,32.30
2023-02-25T06:56:15.026Z,31.38
2023-02-25T06:58:42.593Z,32.20
2023-02-25T07:01:13.585Z,31.92
2023-02-25T07:03:41.754Z,31.67
2023-02-25T07:06:09.778Z,31.30
2023-02-25T07:08:37.077Z,31.80
2023-02-25T07:11:19.550Z,31.88
2023-02-25T07:13:48.621Z,32.35
2023-02-25T07:16:17.109Z,31.07
2023-02-25T07:18:45.360Z,31.83
2023-02-25T07:21:13.238Z,32.75
2023-02-25T07:23:41.355Z,34.38
2023-02-25T07:26:11.885Z,35.03
2023-02-25T07:28:39.917Z,34.47
2023-02-25T07:31:13.570Z,34.38
2023-02-25T07:33:41.884Z,35.60
2023-02-25T07:36:11.213Z,34.42
2023-02-25T07:38:39.269Z,35.13
2023-02-25T07:41:12.255Z,33.20
2023-02-25T07:43:40.095Z,32.07
2023-02-25T07:46:08.440Z,33.42
2023-02-25T07:48:36.593Z,33.17
2023-02-25T07:51:16.124Z,32.03
2023-02-25T07:53:43.534Z,32.03
2023-02-25T07:56:11.494Z,32.00
2023-02-25T07:58:39.342Z,31.73
2023-02-25T08:01:10.751Z,31.40
2023-02-25T08:03:38.589Z,31.07
2023-02-25T08:06:08.723Z,31.77
2023-02-25T08:08:38.217Z,31.80
2023-02-25T08:11:10.702Z,32.20
2023-02-25T08:13:38.751Z,32.97
2023-02-25T08:16:10.851Z,31.65
2023-02-25T08:18:38.265Z,34.05
2023-02-25T08:21:05.729Z,31.67
2023-02-25T08:23:33.067Z,31.08
2023-02-25T08:26:01.223Z,29.15
2023-02-25T08:28:34.244Z,29.17
2023-02-25T08:31:03.435Z,29.58
2023-02-25T08:33:30.829Z,29.20
2023-02-25T08:36:17.108Z,32.35
2023-02-25T08:38:44.698Z,31.58
2023-02-25T08:41:12.899Z,31.83
2023-02-25T08:43:41.022Z,32.47
2023-02-25T08:46:09.023Z,31.53
2023-02-25T08:48:37.115Z,32.55
2023-02-25T08:51:09.637Z,32.45
2023-02-25T08:53:39.133Z,31.02
2023-02-25T08:56:08.420Z,32.25
2023-02-25T08:58:36.824Z,32.47
2023-02-25T09:01:16.834Z,31.50
2023-02-25T09:03:51.382Z,30.58
2023-02-25T09:06:24.432Z,32.15
2023-02-25T09:08:52.708Z,29.52
2023-02-25T09:11:21.249Z,30.02
2023-02-25T09:13:48.980Z,29.98
2023-02-25T09:16:17.425Z,31.08
2023-02-25T09:18:46.498Z,31.00
2023-02-25T09:21:14.654Z,27.83
2023-02-25T09:23:42.551Z,26.63
2023-02-25T09:26:10.759Z,25.00
2023-02-25T09:28:38.056Z,25.70
2023-02-25T09:31:05.710Z,25.55
2023-02-25T09:33:33.541Z,24.47
2023-02-25T09:36:16.334Z,25.27
2023-02-25T09:38:45.272Z,25.75
2023-02-25T09:41:34.063Z,25.70
2023-02-25T09:44:14.373Z,25.63
2023-02-25T09:46:50.874Z,26.08
2023-02-25T09:49:48.193Z,25.63
2023-02-25T09:52:23.142Z,23.77
2023-02-25T09:55:00.429Z,23.85
2023-02-25T09:57:29.636Z,21.75
2023-02-25T09:59:57.048Z,22.03
2023-02-25T10:02:30.390Z,20.98
2023-02-25T10:05:14.885Z,18.70
2023-02-25T10:07:54.382Z,18.55
2023-02-25T10:10:38.246Z,19.20
2023-02-25T10:13:11.061Z,19.30
2023-02-25T10:16:13.664Z,19.38
2023-02-25T10:19:19.969Z,21.05
2023-02-25T10:21:53.455Z,22.70
2023-02-25T10:24:30.970Z,24.90
2023-02-25T10:27:11.438Z,24.50
2023-02-25T10:29:49.256Z,23.20
2023-02-25T10:32:26.769Z,22.55
2023-02-25T10:34:58.215Z,21.02
2023-02-25T10:37:33.576Z,21.75
2023-02-25T10:40:04.778Z,20.43
2023-02-25T10:42:33.788Z,19.35
2023-02-25T10:45:19.936Z,20.42
2023-02-25T10:47:51.691Z,19.38
2023-02-25T10:50:42.744Z,18.50
2023-02-25T10:53:16.273Z,19.37
2023-02-25T10:55:43.867Z,20.55
2023-02-25T10:58:37.024Z,19.58
2023-02-25T11:01:16.896Z,19.33
2023-02-25T11:03:52.678Z,18.45
2023-02-25T11:06:38.106Z,16.38
2023-02-25T11:09:18.822Z,14.73
2023-02-25T11:12:08.880Z,14.07
2023-02-25T11:14:38.093Z,13.43
2023-02-25T11:17:14.567Z,13.98
2023-02-25T11:19:45.883Z,14.15
2023-02-25T11:22:38.099Z,13.48
2023-02-25T11:25:14.982Z,12.90
2023-02-25T11:27:45.195Z,12.40
2023-02-25T11:30:12.459Z,12.35
2023-02-25T11:32:54.845Z,13.40
2023-02-25T11:35:30.731Z,12.90
2023-02-25T11:38:12.192Z,11.88
2023-02-25T11:40:44.872Z,12.05
2023-02-25T11:43:31.866Z,12.27
2023-02-25T11:46:24.987Z,11.55
2023-02-25T11:49:00.273Z,10.73
2023-02-25T11:51:47.014Z,11.40
2023-02-25T11:54:31.095Z,10.95
2023-02-25T11:57:05.418Z,11.00
2023-02-25T11:59:47.246Z,12.38
2023-02-25T12:02:25.360Z,10.77
2023-02-25T12:05:30.188Z,11.15
2023-02-25T12:08:13.643Z,11.07
2023-02-25T12:11:06.116Z,11.27
2023-02-25T12:14:00.954Z,11.02
2023-02-25T12:16:49.621Z,10.82
2023-02-25T12:19:38.204Z,10.52
2023-02-25T12:22:47.656Z,10.45
2023-02-25T12:25:42.452Z,9.68
2023-02-25T12:28:28.982Z,9.13
2023-02-25T12:31:22.835Z,9.60
2023-02-25T12:34:11.442Z,9.27
2023-02-25T12:37:19.928Z,9.40
2023-02-25T12:40:24.973Z,10.15
2023-02-25T12:43:06.793Z,10.30
2023-02-25T12:45:53.888Z,10.05
2023-02-25T12:48:34.116Z,10.40
2023-02-25T12:51:29.402Z,9.55
2023-02-25T12:54:21.843Z,9.77
2023-02-25T12:56:59.842Z,9.80
2023-02-25T12:59:51.273Z,8.93
2023-02-25T13:02:36.261Z,8.30
2023-02-25T13:05:15.708Z,8.05
2023-02-25T13:08:10.264Z,8.68
2023-02-25T13:10:46.523Z,8.77
2023-02-25T13:13:41.175Z,9.00
2023-02-25T13:16:22.906Z,9.02
2023-02-25T13:19:14.920Z,8.80
2023-02-25T13:22:05.335Z,8.57
2023-02-25T13:25:04.423Z,9.53
2023-02-25T13:27:59.815Z,9.65
2023-02-25T13:30:53.701Z,11.60
2023-02-25T13:33:33.312Z,10.38
2023-02-25T13:36:10.401Z,10.05
2023-02-25T13:39:11.651Z,10.63
2023-02-25T13:42:04.513Z,10.88
2023-02-25T13:44:39.213Z,11.00
2023-02-25T13:47:33.452Z,11.68
2023-02-25T13:50:37.601Z,10.82
2023-02-25T13:53:23.736Z,11.23
2023-02-25T13:56:15.958Z,12.50
2023-02-25T13:59:09.103Z,11.75
2023-02-25T14:02:01.379Z,12.48
2023-02-25T14:04:53.350Z,11.23
2023-02-25T14:08:01.042Z,11.45
2023-02-25T14:10:50.332Z,12.18
2023-02-25T14:13:30.065Z,11.73
2023-02-25T14:16:14.481Z,12.45
2023-02-25T14:18:52.490Z,11.80
2023-02-25T14:21:25.880Z,12.23
2023-02-25T14:24:00.792Z,11.20
2023-02-25T14:26:59.199Z,11.60
2023-02-25T14:29:53.911Z,11.82
2023-02-25T14:32:45.044Z,12.53
2023-02-25T14:35:30.697Z,12.48
2023-02-25T14:38:13.173Z,13.05
2023-02-25T14:40:48.461Z,12.65
2023-02-25T14:43:33.175Z,13.55
2023-02-25T14:46:31.185Z,12.65
2023-02-25T14:49:03.929Z,14.45
2023-02-25T14:51:49.974Z,13.73
2023-02-25T14:54:23.433Z,13.50
2023-02-25T14:56:54.168Z,14.10
2023-02-25T14:59:36.509Z,13.48
2023-02-25T15:02:45.286Z,14.95
2023-02-25T15:05:40.282Z,14.02
2023-02-25T15:08:44.866Z,15.03
2023-02-25T15:11:31.115Z,15.40
2023-02-25T15:14:27.885Z,15.27
2023-02-25T15:17:32.287Z,15.55
2023-02-25T15:20:14.614Z,17.00
2023-02-25T15:23:04.998Z,17.63
2023-02-25T15:25:53.235Z,17.20
2023-02-25T15:28:29.790Z,19.73
2023-02-25T15:31:00.519Z,19.60
2023-02-25T15:33:36.808Z,18.58
2023-02-25T15:36:16.458Z,17.37
2023-02-25T15:38:51.107Z,17.33
2023-02-25T15:41:27.177Z,17.88
2023-02-25T15:43:58.434Z,18.02
2023-02-25T15:46:34.768Z,16.60
2023-02-25T15:49:10.274Z,17.52
2023-02-25T15:51:55.263Z,17.02
2023-02-25T15:54:28.679Z,17.02
2023-02-25T15:57:00.453Z,17.40
2023-02-25T15:59:47.352Z,17.90
2023-02-25T16:02:29.819Z,17.77
2023-02-25T16:05:04.093Z,17.73
2023-02-25T16:07:35.883Z,17.65
2023-02-25T16:10:17.428Z,23.08
2023-02-25T16:12:48.245Z,24.80
2023-02-25T16:15:38.309Z,21.02
2023-02-25T16:18:29.037Z,18.20
2023-02-25T16:21:06.134Z,24.33
2023-02-25T16:23:38.083Z,22.33
2023-02-25T16:26:41.817Z,21.67
2023-02-25T16:29:12.208Z,19.40
2023-02-25T16:31:58.716Z,19.15
2023-02-25T16:34:41.277Z,19.35
2023-02-25T16:37:18.282Z,22.90
2023-02-25T16:39:45.966Z,18.97
2023-02-25T16:42:16.352Z,19.10
2023-02-25T16:44:58.936Z,19.83
2023-02-25T16:47:36.684Z,21.03
2023-02-25T16:50:12.735Z,21.25
2023-02-25T16:52:47.841Z,20.55
2023-02-25T16:55:23.014Z,20.70
2023-02-25T16:58:15.152Z,19.73
2023-02-25T17:00:56.529Z,21.13
2023-02-25T17:03:26.625Z,22.65
2023-02-25T17:06:14.504Z,23.30
2023-02-25T17:08:46.301Z,22.92
2023-02-25T17:11:18.810Z,24.77
2023-02-25T17:13:50.142Z,24.30
2023-02-25T17:16:28.458Z,24.13
2023-02-25T17:19:04.001Z,25.15
2023-02-25T17:21:40.035Z,23.70
2023-02-25T17:24:13.451Z,24.10
2023-02-25T17:26:43.012Z,23.27
2023-02-25T17:29:13.187Z,24.42
2023-02-25T17:31:47.602Z,27.27
2023-02-25T17:34:39.486Z,27.70
2023-02-25T17:37:09.417Z,25.02
2023-02-25T17:39:38.920Z,32.75
2023-02-25T17:42:26.722Z,37.67
2023-02-25T17:44:54.162Z,40.63
2023-02-25T17:47:26.131Z,37.03
2023-02-25T17:49:54.404Z,37.00
2023-02-25T17:52:28.091Z,37.78
2023-02-25T17:55:01.914Z,36.63
2023-02-25T17:57:31.624Z,37.10
2023-02-25T18:00:10.681Z,36.00
2023-02-25T18:02:44.254Z,38.47
2023-02-25T18:05:16.748Z,37.22
2023-02-25T18:08:15.151Z,35.05
2023-02-25T18:10:48.324Z,35.10
2023-02-25T18:13:25.257Z,33.42
2023-02-25T18:16:31.387Z,32.90
2023-02-25T18:19:00.010Z,33.90
2023-02-25T18:21:28.404Z,32.88
2023-02-25T18:23:56.370Z,36.92
2023-02-25T18:26:25.746Z,33.50
2023-02-25T18:28:57.456Z,32.47
2023-02-25T18:31:25.146Z,32.35
2023-02-25T18:33:52.753Z,34.03
2023-02-25T18:36:23.850Z,34.10
2023-02-25T18:38:54.067Z,34.67
2023-02-25T18:41:21.396Z,33.47
2023-02-25T18:43:48.884Z,34.28
2023-02-25T18:46:16.247Z,34.28
2023-02-25T18:48:43.557Z,35.08
2023-02-25T18:51:14.195Z,34.38
2023-02-25T18:53:42.025Z,34.58
2023-02-25T18:56:15.312Z,33.90
2023-02-25T18:58:43.002Z,35.70
2023-02-25T19:01:23.794Z,36.78
2023-02-25T19:03:51.695Z,35.33
2023-02-25T19:06:19.035Z,35.97
2023-02-25T19:08:46.500Z,35.35
2023-02-25T19:11:22.986Z,36.10
2023-02-25T19:13:51.165Z,34.88
2023-02-25T19:16:19.358Z,35.35
2023-02-25T19:18:50.055Z,35.63
2023-02-25T19:21:20.414Z,35.58
2023-02-25T19:23:51.765Z,36.33
2023-02-25T19:26:19.306Z,37.08
2023-02-25T19:28:46.576Z,35.70
2023-02-25T19:31:14.110Z,38.03
2023-02-25T19:33:41.596Z,36.42
2023-02-25T19:36:10.796Z,37.25
2023-02-25T19:38:38.100Z,37.15
2023-02-25T19:41:07.662Z,37.50
2023-02-25T19:43:35.215Z,36.88
2023-02-25T19:46:02.807Z,37.53
2023-02-25T19:48:30.106Z,77.13
2023-02-25T19:50:57.481Z,74.43
2023-02-25T19:53:25.020Z,70.32
2023-02-25T19:55:57.432Z,65.82
2023-02-25T19:58:24.929Z,62.17
2023-02-25T20:00:52.261Z,56.95
2023-02-25T20:03:19.610Z,51.72
2023-02-25T20:05:46.940Z,51.83
2023-02-25T20:08:14.303Z,47.10
2023-02-25T20:10:43.145Z,46.75
2023-02-25T20:13:10.790Z,43.22
2023-02-25T20:15:38.405Z,43.28
2023-02-25T20:18:06.030Z,42.88
2023-02-25T20:20:33.571Z,40.33
2023-02-25T20:23:00.850Z,41.58
2023-02-25T20:25:28.239Z,40.60
2023-02-25T20:27:55.540Z,40.70
2023-02-25T20:30:23.138Z,42.15
2023-02-25T20:32:50.555Z,41.33
2023-02-25T20:35:21.908Z,41.95
2023-02-25T20:38:00.265Z,42.20
2023-02-25T20:40:27.717Z,44.30
2023-02-25T20:42:55.147Z,45.33
2023-02-25T20:45:22.659Z,45.15
2023-02-25T20:47:50.292Z,46.80
2023-02-25T20:50:23.498Z,45.70
2023-02-25T20:52:50.910Z,42.67
2023-02-25T20:55:18.307Z,43.33
2023-02-25T20:57:45.797Z,44.15
2023-02-25T21:00:16.426Z,43.55
2023-02-25T21:02:43.928Z,44.65
2023-02-25T21:05:11.272Z,45.25
2023-02-25T21:07:38.722Z,44.33
2023-02-25T21:10:06.550Z,42.25
2023-02-25T21:12:34.534Z,43.80
2023-02-25T21:15:02.688Z,42.42
2023-02-25T21:17:30.516Z,41.17
2023-02-25T21:19:57.865Z,43.28
2023-02-25T21:22:25.412Z,42.17
2023-02-25T21:24:53.020Z,42.70
2023-02-25T21:27:20.483Z,43.53
2023-02-25T21:29:47.838Z,43.65
2023-02-25T21:32:15.189Z,42.80
2023-02-25T21:34:42.615Z,42.17
2023-02-25T21:37:10.023Z,42.45
2023-02-25T21:39:37.421Z,42.03
2023-02-25T21:42:05.532Z,43.05
2023-02-25T21:44:33.270Z,39.53
2023-02-25T21:47:00.566Z,42.70
2023-02-25T21:49:30.389Z,43.03
2023-02-25T21:51:59.495Z,43.28
2023-02-25T21:54:26.874Z,40.85
2023-02-25T21:56:54.213Z,41.67
2023-02-25T21:59:23.266Z,46.40
2023-02-25T22:01:50.929Z,41.83
2023-02-25T22:04:18.457Z,42.75
2023-02-25T22:06:48.849Z,40.40
2023-02-25T22:09:18.007Z,42.47
2023-02-25T22:11:45.510Z,40.60
2023-02-25T22:14:12.968Z,42.05
2023-02-25T22:16:41.010Z,41.88
2023-02-25T22:19:08.389Z,41.72
2023-02-25T22:21:36.360Z,41.13
2023-02-25T22:24:05.175Z,40.20
2023-02-25T22:26:34.896Z,40.53
2023-02-25T22:29:05.814Z,43.05
2023-02-25T22:31:35.044Z,42.27
2023-02-25T22:34:03.494Z,41.80
2023-02-25T22:36:30.866Z,41.40
2023-02-25T22:38:58.295Z,42.67
2023-02-25T22:41:28.425Z,42.70
2023-02-25T22:43:57.787Z,42.22
2023-02-25T22:46:25.425Z,42.10
2023-02-25T22:48:53.849Z,42.30
2023-02-25T22:51:24.586Z,42.15
2023-02-25T22:53:52.845Z,41.72
2023-02-25T22:56:21.925Z,41.67
2023-02-25T22:58:49.765Z,41.40
2023-02-25T23:01:19.443Z,41.65
2023-02-25T23:03:48.428Z,40.95
2023-02-25T23:06:18.036Z,42.67
2023-02-25T23:08:46.129Z,43.50
2023-02-25T23:11:17.914Z,41.50
2023-02-25T23:16:42.358Z,42.95
2023-02-25T23:19:13.703Z,42.38
2023-02-25T23:21:41.669Z,43.33
2023-02-25T23:24:16.109Z,43.10
2023-02-25T23:26:45.186Z,42.13
2023-02-25T23:29:13.202Z,43.45
2023-02-25T23:31:46.932Z,45.20
2023-02-25T23:34:19.758Z,44.10
2023-02-25T23:36:47.512Z,43.90
2023-02-25T23:39:15.664Z,46.17
2023-02-25T23:41:43.475Z,44.70
2023-02-25T23:44:11.660Z,42.35
2023-02-25T23:46:39.576Z,45.70
2023-02-25T23:49:07.601Z,44.08
2023-02-25T23:51:36.604Z,43.88
2023-02-25T23:54:06.054Z,41.13
2023-02-25T23:56:35.234Z,43.22
2023-02-25T23:59:02.923Z,41.67
